createdAt,value
2018-12-07T00:00:08.685Z,8.27
2018-12-07T00:02:36.624Z,6.67
2018-12-07T00:05:04.701Z,6.83
2018-12-07T00:07:32.568Z,6.97
2018-12-07T00:10:00.407Z,7.20
2018-12-07T00:12:28.339Z,7.13
2018-12-07T00:14:56.148Z,7.33
2018-12-07T00:17:24.066Z,6.53
2018-12-07T00:19:51.909Z,7.77
2018-12-07T00:22:19.781Z,7.60
2018-12-07T00:24:47.653Z,6.73
2018-12-07T00:27:15.534Z,8.00
2018-12-07T00:32:27.200Z,7.40
2018-12-07T00:34:55.055Z,7.60
2018-12-07T00:37:22.991Z,8.40
2018-12-07T00:39:50.817Z,8.57
2018-12-07T00:42:18.722Z,8.40
2018-12-07T00:44:48.326Z,9.03
2018-12-07T00:47:16.471Z,9.03
2018-12-07T00:49:44.277Z,9.23
2018-12-07T00:52:12.179Z,9.13
2018-12-07T00:54:39.984Z,9.30
2018-12-07T00:57:07.928Z,9.77
2018-12-07T00:59:35.757Z,10.43
2018-12-07T01:02:03.737Z,10.67
2018-12-07T01:04:31.568Z,10.20
2018-12-07T01:06:59.522Z,9.70
2018-12-07T01:09:27.381Z,9.97
2018-12-07T01:11:55.273Z,10.40
2018-12-07T01:14:23.079Z,11.23
2018-12-07T01:16:50.976Z,11.03
2018-12-07T01:19:18.918Z,10.87
2018-12-07T01:21:46.811Z,11.20
2018-12-07T01:24:14.826Z,11.83
2018-12-07T01:26:42.749Z,12.13
2018-12-07T01:29:10.600Z,12.83
2018-12-07T01:31:38.419Z,12.53
2018-12-07T01:34:06.326Z,12.97
2018-12-07T01:36:34.157Z,13.80
2018-12-07T01:39:02.217Z,14.07
2018-12-07T01:41:30.047Z,13.87
2018-12-07T01:43:57.922Z,13.97
2018-12-07T01:46:25.800Z,13.17
2018-12-07T01:48:53.802Z,14.00
2018-12-07T01:51:21.681Z,14.70
2018-12-07T01:53:49.704Z,13.87
2018-12-07T01:56:17.491Z,13.80
2018-12-07T01:58:45.435Z,13.83
2018-12-07T02:01:13.269Z,13.53
2018-12-07T02:03:41.159Z,12.87
2018-12-07T02:06:08.995Z,13.13
2018-12-07T02:08:36.887Z,12.77
2018-12-07T02:11:04.714Z,12.47
2018-12-07T02:13:32.632Z,13.93
2018-12-07T02:16:00.461Z,13.23
2018-12-07T02:18:28.350Z,12.87
2018-12-07T02:20:56.355Z,14.93
2018-12-07T02:23:24.316Z,13.47
2018-12-07T02:25:52.151Z,13.57
2018-12-07T02:28:20.028Z,15.20
2018-12-07T02:30:47.978Z,16.03
2018-12-07T02:33:15.838Z,16.20
2018-12-07T02:35:43.748Z,17.37
2018-12-07T02:38:11.555Z,16.87
2018-12-07T02:40:39.470Z,15.70
2018-12-07T02:43:07.321Z,14.77
2018-12-07T02:45:35.158Z,15.70
2018-12-07T02:48:03.206Z,16.83
2018-12-07T02:50:31.161Z,16.73
2018-12-07T02:53:00.793Z,16.60
2018-12-07T02:55:28.693Z,18.70
2018-12-07T02:57:56.518Z,17.00
2018-12-07T03:00:24.451Z,18.90
2018-12-07T03:02:52.267Z,16.80
2018-12-07T03:05:20.183Z,18.57
2018-12-07T03:07:48.150Z,19.53
2018-12-07T03:10:15.999Z,19.77
2018-12-07T03:12:43.834Z,19.53
2018-12-07T03:15:11.777Z,19.50
2018-12-07T03:17:39.615Z,20.80
2018-12-07T03:20:07.565Z,22.97
2018-12-07T03:22:35.363Z,22.90
2018-12-07T03:25:03.613Z,21.00
2018-12-07T03:27:31.461Z,23.53
2018-12-07T03:29:59.335Z,20.30
2018-12-07T03:32:27.230Z,22.23
2018-12-07T03:34:55.015Z,21.57
2018-12-07T03:37:22.946Z,21.67
2018-12-07T03:39:50.761Z,24.00
2018-12-07T03:42:18.671Z,21.97
2018-12-07T03:44:46.514Z,20.27
2018-12-07T03:47:14.422Z,23.53
2018-12-07T03:49:42.256Z,22.57
2018-12-07T03:52:10.151Z,22.07
2018-12-07T03:54:37.962Z,22.97
2018-12-07T03:57:05.895Z,22.40
2018-12-07T03:59:33.686Z,23.03
2018-12-07T04:02:01.713Z,22.53
2018-12-07T04:04:29.591Z,24.13
2018-12-07T04:06:57.426Z,21.33
2018-12-07T04:09:26.409Z,22.43
2018-12-07T04:11:54.283Z,23.80
2018-12-07T04:14:22.141Z,22.00
2018-12-07T04:16:51.683Z,21.83
2018-12-07T04:19:19.655Z,24.63
2018-12-07T04:21:47.541Z,22.57
2018-12-07T04:24:15.426Z,21.37
2018-12-07T04:26:43.467Z,21.30
2018-12-07T04:29:11.347Z,19.80
2018-12-07T04:31:39.232Z,22.00
2018-12-07T04:34:07.246Z,21.63
2018-12-07T04:36:35.077Z,18.67
2018-12-07T04:39:04.473Z,20.50
2018-12-07T04:41:32.503Z,17.87
2018-12-07T04:44:00.338Z,18.33
2018-12-07T04:46:28.423Z,18.60
2018-12-07T04:48:56.280Z,19.43
2018-12-07T04:51:24.161Z,18.60
2018-12-07T04:53:52.052Z,21.10
2018-12-07T04:56:19.980Z,17.37
2018-12-07T04:58:47.899Z,17.13
2018-12-07T05:01:15.753Z,19.50
2018-12-07T05:03:43.624Z,16.80
2018-12-07T05:06:11.513Z,17.47
2018-12-07T05:08:39.493Z,16.37
2018-12-07T05:11:07.344Z,17.13
2018-12-07T05:13:35.374Z,17.23
2018-12-07T05:16:03.206Z,16.13
2018-12-07T05:18:31.201Z,16.17
2018-12-07T05:20:59.133Z,19.63
2018-12-07T05:23:27.041Z,17.63
2018-12-07T05:25:54.892Z,15.57
2018-12-07T05:28:22.791Z,16.73
2018-12-07T05:30:50.651Z,17.70
2018-12-07T05:33:18.511Z,19.27
2018-12-07T05:35:46.537Z,16.83
2018-12-07T05:38:14.379Z,17.40
2018-12-07T05:40:42.306Z,18.67
2018-12-07T05:43:10.145Z,18.70
2018-12-07T05:45:38.023Z,17.67
2018-12-07T05:48:05.880Z,18.10
2018-12-07T05:50:33.784Z,17.30
2018-12-07T05:53:01.614Z,18.50
2018-12-07T05:55:30.496Z,17.97
2018-12-07T05:57:58.299Z,18.23
2018-12-07T06:00:26.169Z,17.20
2018-12-07T06:02:53.993Z,17.70
2018-12-07T06:05:21.908Z,17.93
2018-12-07T06:07:49.721Z,18.23
2018-12-07T06:10:17.633Z,17.77
2018-12-07T06:12:45.511Z,17.67
2018-12-07T06:15:13.345Z,18.13
2018-12-07T06:17:41.142Z,18.63
2018-12-07T06:20:09.021Z,19.43
2018-12-07T06:22:36.826Z,16.87
2018-12-07T06:25:05.091Z,19.47
2018-12-07T06:27:32.901Z,18.13
2018-12-07T06:30:00.763Z,19.80
2018-12-07T06:32:35.938Z,17.50
2018-12-07T06:34:58.514Z,17.30
2018-12-07T06:37:26.507Z,18.90
2018-12-07T06:39:54.370Z,18.07
2018-12-07T06:42:22.266Z,18.00
2018-12-07T06:44:50.137Z,17.00
2018-12-07T06:47:17.977Z,16.87
2018-12-07T06:49:45.885Z,16.93
2018-12-07T06:52:13.714Z,17.33
2018-12-07T06:54:41.744Z,16.43
2018-12-07T06:57:09.557Z,14.67
2018-12-07T06:59:37.391Z,15.97
2018-12-07T07:02:05.230Z,15.93
2018-12-07T07:04:33.080Z,16.47
2018-12-07T07:07:00.943Z,14.47
2018-12-07T07:09:28.785Z,14.90
2018-12-07T07:11:56.610Z,15.07
2018-12-07T07:14:24.574Z,14.30
2018-12-07T07:16:52.424Z,13.57
2018-12-07T07:19:20.266Z,15.13
2018-12-07T07:21:48.115Z,13.27
2018-12-07T07:24:15.988Z,13.30
2018-12-07T07:26:43.831Z,13.17
2018-12-07T07:29:11.634Z,11.97
2018-12-07T07:31:43.391Z,14.00
2018-12-07T07:34:09.307Z,12.07
2018-12-07T07:36:37.197Z,11.83
2018-12-07T07:39:05.974Z,13.83
2018-12-07T07:41:33.948Z,12.57
2018-12-07T07:44:01.774Z,14.47
2018-12-07T07:46:29.654Z,14.13
2018-12-07T07:48:57.500Z,13.63
2018-12-07T07:51:25.415Z,13.70
2018-12-07T07:53:53.254Z,14.73
2018-12-07T07:56:21.244Z,13.90
2018-12-07T07:58:49.106Z,13.10
2018-12-07T08:01:16.973Z,14.37
2018-12-07T08:03:44.921Z,13.57
2018-12-07T08:06:12.822Z,13.77
2018-12-07T08:08:40.709Z,12.73
2018-12-07T08:11:08.635Z,12.33
2018-12-07T08:13:36.558Z,13.27
2018-12-07T08:16:04.489Z,12.47
2018-12-07T08:18:32.314Z,13.00
2018-12-07T08:21:00.204Z,11.27
2018-12-07T08:23:28.084Z,10.93
2018-12-07T08:25:56.027Z,9.97
2018-12-07T08:28:23.867Z,11.20
2018-12-07T08:30:51.797Z,10.47
2018-12-07T08:33:19.784Z,9.70
2018-12-07T08:35:47.615Z,9.23
2018-12-07T08:38:15.479Z,8.70
2018-12-07T08:40:43.293Z,8.40
2018-12-07T08:43:11.263Z,8.50
2018-12-07T08:45:39.154Z,7.70
2018-12-07T08:48:07.052Z,7.90
2018-12-07T08:50:34.901Z,6.97
2018-12-07T08:53:02.916Z,7.10
2018-12-07T08:55:30.761Z,6.47
2018-12-07T08:57:58.721Z,6.23
2018-12-07T09:00:26.570Z,5.67
2018-12-07T09:02:54.428Z,4.93
2018-12-07T09:05:22.271Z,4.33
2018-12-07T09:07:50.183Z,4.67
2018-12-07T09:10:18.007Z,3.27
2018-12-07T09:12:46.142Z,3.63
2018-12-07T09:15:14.084Z,3.87
2018-12-07T09:17:42.049Z,3.83
2018-12-07T09:20:09.871Z,3.57
2018-12-07T09:22:37.742Z,2.80
2018-12-07T09:25:05.817Z,3.20
2018-12-07T09:27:33.762Z,2.40
2018-12-07T09:30:01.732Z,3.00
2018-12-07T09:32:29.542Z,2.13
2018-12-07T09:34:57.374Z,2.07
2018-12-07T09:37:25.176Z,1.90
2018-12-07T09:39:53.173Z,1.40
2018-12-07T09:42:21.001Z,1.93
2018-12-07T09:44:48.973Z,1.57
2018-12-07T09:47:16.772Z,0.90
2018-12-07T09:49:44.716Z,1.33
2018-12-07T09:52:12.501Z,0.83
2018-12-07T09:54:40.430Z,1.17
2018-12-07T09:57:08.276Z,0.80
2018-12-07T09:59:36.078Z,0.50
2018-12-07T10:02:04.060Z,0.40
2018-12-07T10:04:31.883Z,0.60
2018-12-07T10:06:59.764Z,0.93
2018-12-07T10:09:27.616Z,0.50
2018-12-07T10:11:55.431Z,0.40
2018-12-07T10:14:23.247Z,0.40
2018-12-07T10:16:51.125Z,0.40
2018-12-07T10:19:18.962Z,0.40
2018-12-07T10:21:46.790Z,0.50
2018-12-07T10:24:14.617Z,0.30
2018-12-07T10:26:42.433Z,0.27
2018-12-07T10:29:10.317Z,0.40
2018-12-07T10:31:38.138Z,0.20
2018-12-07T10:34:05.974Z,0.30
2018-12-07T10:36:33.783Z,0.20
2018-12-07T10:39:01.619Z,0.30
2018-12-07T10:41:29.442Z,0.40
2018-12-07T10:43:57.290Z,0.50
2018-12-07T10:46:25.102Z,0.37
2018-12-07T10:48:53.059Z,0.40
2018-12-07T10:51:20.968Z,0.40
2018-12-07T10:53:49.032Z,0.40
2018-12-07T10:56:16.867Z,0.30
2018-12-07T10:58:44.764Z,0.30
2018-12-07T11:02:18.711Z,0.50
2018-12-07T11:04:52.238Z,0.30
2018-12-07T11:07:25.604Z,0.40
2018-12-07T11:09:59.082Z,0.50
2018-12-07T11:12:32.492Z,0.40
2018-12-07T11:15:06.039Z,0.33
2018-12-07T11:17:39.350Z,0.30
2018-12-07T11:20:12.744Z,0.30
2018-12-07T11:22:46.237Z,0.30
2018-12-07T11:25:19.693Z,0.30
2018-12-07T11:27:53.113Z,0.60
2018-12-07T11:30:30.440Z,0.30
2018-12-07T11:33:04.085Z,0.20
2018-12-07T11:35:35.289Z,0.20
2018-12-07T11:38:03.235Z,0.20
2018-12-07T11:40:31.065Z,0.30
2018-12-07T11:42:59.154Z,0.20
2018-12-07T11:45:26.981Z,0.20
2018-12-07T11:47:54.874Z,0.20
2018-12-07T11:50:22.717Z,0.17
2018-12-07T11:52:50.629Z,0.20
2018-12-07T11:55:18.473Z,0.20
2018-12-07T11:57:46.405Z,0.13
2018-12-07T12:00:14.222Z,0.10
2018-12-07T12:02:42.245Z,0.10
2018-12-07T12:05:10.386Z,0.20
2018-12-07T12:07:38.659Z,0.20
2018-12-07T12:10:06.713Z,0.20
2018-12-07T12:12:34.605Z,0.20
2018-12-07T12:15:02.441Z,0.17
2018-12-07T12:17:30.354Z,0.20
2018-12-07T12:19:58.174Z,0.37
2018-12-07T12:22:26.110Z,0.30
2018-12-07T12:24:54.005Z,0.23
2018-12-07T12:27:21.986Z,0.40
2018-12-07T12:29:49.834Z,0.37
2018-12-07T12:32:17.659Z,0.60
2018-12-07T12:34:45.493Z,0.30
2018-12-07T12:37:13.394Z,0.40
2018-12-07T12:39:41.219Z,0.60
2018-12-07T12:42:09.129Z,0.40
2018-12-07T12:44:36.955Z,0.60
2018-12-07T12:47:04.895Z,0.30
2018-12-07T12:49:32.738Z,0.47
2018-12-07T12:52:00.722Z,0.50
2018-12-07T12:54:28.514Z,0.80
2018-12-07T12:56:56.448Z,0.50
2018-12-07T12:59:24.328Z,0.70
2018-12-07T13:01:52.271Z,0.77
2018-12-07T13:04:20.106Z,0.80
2018-12-07T13:06:48.003Z,0.70
2018-12-07T13:09:15.860Z,0.83
2018-12-07T13:11:43.731Z,1.20
2018-12-07T13:14:11.688Z,0.87
2018-12-07T13:16:39.721Z,0.80
2018-12-07T13:19:07.588Z,0.77
2018-12-07T13:21:35.465Z,1.00
2018-12-07T13:24:03.336Z,0.90
2018-12-07T13:26:31.182Z,0.70
2018-12-07T13:28:59.030Z,1.27
2018-12-07T13:31:26.880Z,1.47
2018-12-07T13:33:54.768Z,0.80
2018-12-07T13:36:22.623Z,0.87
2018-12-07T13:38:50.467Z,0.87
2018-12-07T13:41:18.402Z,1.60
2018-12-07T13:43:46.473Z,1.10
2018-12-07T13:46:14.771Z,1.33
2018-12-07T13:48:42.883Z,1.10
2018-12-07T13:51:10.819Z,1.13
2018-12-07T13:53:38.827Z,1.23
2018-12-07T13:56:06.735Z,1.27
2018-12-07T13:58:34.855Z,1.20
2018-12-07T14:01:02.798Z,0.70
2018-12-07T14:03:30.848Z,1.10
2018-12-07T14:05:58.948Z,0.97
2018-12-07T14:08:27.163Z,1.20
2018-12-07T14:10:55.477Z,1.67
2018-12-07T14:13:23.753Z,1.70
2018-12-07T14:15:51.925Z,1.50
2018-12-07T14:18:20.113Z,1.93
2018-12-07T14:20:48.311Z,1.80
2018-12-07T14:23:16.470Z,0.83
2018-12-07T14:25:44.509Z,1.00
2018-12-07T14:28:12.821Z,0.77
2018-12-07T14:30:40.960Z,0.60
2018-12-07T14:33:08.956Z,0.80
2018-12-07T14:35:36.997Z,0.60
2018-12-07T14:38:05.125Z,0.80
2018-12-07T14:40:33.170Z,1.13
2018-12-07T14:43:01.409Z,0.60
2018-12-07T14:45:29.424Z,0.93
2018-12-07T14:47:57.649Z,0.50
2018-12-07T14:50:25.703Z,0.60
2018-12-07T14:52:54.038Z,0.47
2018-12-07T14:55:22.061Z,0.83
2018-12-07T14:57:50.136Z,0.50
2018-12-07T15:00:18.143Z,0.60
2018-12-07T15:02:46.231Z,1.67
2018-12-07T15:05:14.337Z,0.63
2018-12-07T15:07:42.257Z,1.30
2018-12-07T15:10:10.312Z,0.67
2018-12-07T15:12:38.440Z,1.40
2018-12-07T15:15:07.138Z,0.80
2018-12-07T15:17:35.344Z,1.80
2018-12-07T15:20:04.187Z,1.07
2018-12-07T15:22:32.129Z,1.93
2018-12-07T15:25:00.147Z,1.80
2018-12-07T15:27:28.169Z,2.00
2018-12-07T15:29:56.321Z,2.30
2018-12-07T15:32:24.385Z,2.67
2018-12-07T15:34:52.584Z,2.10
2018-12-07T15:37:22.009Z,1.70
2018-12-07T15:39:49.862Z,2.50
2018-12-07T15:42:17.740Z,0.87
2018-12-07T15:44:45.704Z,1.47
2018-12-07T15:47:14.885Z,0.97
2018-12-07T15:49:43.100Z,0.83
2018-12-07T15:52:11.165Z,1.10
2018-12-07T15:54:39.075Z,0.77
2018-12-07T15:57:07.183Z,0.83
2018-12-07T15:59:35.166Z,1.03
2018-12-07T16:02:03.201Z,1.10
2018-12-07T16:04:31.291Z,0.97
2018-12-07T16:06:59.386Z,0.73
2018-12-07T16:09:27.322Z,1.03
2018-12-07T16:11:55.283Z,1.33
2018-12-07T16:14:23.385Z,0.90
2018-12-07T16:16:51.650Z,1.20
2018-12-07T16:19:19.961Z,0.90
2018-12-07T16:21:48.117Z,1.10
2018-12-07T16:24:24.025Z,1.50
2018-12-07T16:26:52.216Z,1.30
2018-12-07T16:29:20.301Z,1.10
2018-12-07T16:31:48.321Z,1.60
2018-12-07T16:34:16.318Z,2.60
2018-12-07T16:36:44.333Z,0.87
2018-12-07T16:39:12.449Z,1.80
2018-12-07T16:41:40.543Z,1.67
2018-12-07T16:44:08.493Z,2.10
2018-12-07T16:46:36.535Z,1.80
2018-12-07T16:49:04.592Z,1.93
2018-12-07T16:51:32.548Z,3.10
2018-12-07T16:54:00.453Z,1.80
2018-12-07T16:56:29.490Z,1.17
2018-12-07T16:58:57.491Z,1.17
2018-12-07T17:01:25.437Z,2.37
2018-12-07T17:03:53.401Z,1.17
2018-12-07T17:06:21.347Z,2.23
2018-12-07T17:08:49.459Z,1.83
2018-12-07T17:11:17.510Z,3.03
2018-12-07T17:13:45.606Z,6.03
2018-12-07T17:16:13.626Z,5.00
2018-12-07T17:21:07.214Z,3.77
2018-12-07T17:23:35.484Z,2.17
2018-12-07T17:26:03.676Z,1.20
2018-12-07T17:28:31.735Z,0.97
2018-12-07T17:30:59.813Z,0.53
2018-12-07T17:33:27.751Z,0.33
2018-12-07T17:35:55.726Z,1.33
2018-12-07T17:38:23.563Z,0.97
2018-12-07T17:40:51.520Z,0.50
2018-12-07T17:43:19.515Z,0.40
2018-12-07T17:45:47.497Z,0.60
2018-12-07T17:48:15.603Z,0.57
2018-12-07T17:50:43.606Z,0.60
2018-12-07T17:53:11.568Z,0.80
2018-12-07T17:55:39.667Z,1.00
2018-12-07T17:58:07.732Z,0.60
2018-12-07T18:00:36.089Z,1.00
2018-12-07T18:03:04.004Z,1.60
2018-12-07T18:05:31.940Z,1.53
2018-12-07T18:08:00.134Z,2.10
2018-12-07T18:10:28.243Z,1.80
2018-12-07T18:12:56.273Z,2.67
2018-12-07T18:15:25.464Z,1.93
2018-12-07T18:17:53.475Z,2.30
2018-12-07T18:20:21.509Z,2.20
2018-12-07T18:22:49.538Z,3.07
2018-12-07T18:25:17.459Z,2.27
2018-12-07T18:27:45.422Z,2.00
2018-12-07T18:30:13.434Z,3.10
2018-12-07T18:32:41.635Z,2.63
2018-12-07T18:35:09.929Z,4.80
2018-12-07T18:37:38.052Z,3.57
2018-12-07T18:40:06.086Z,2.33
2018-12-07T18:42:36.042Z,2.10
2018-12-07T18:45:04.258Z,2.53
2018-12-07T18:47:32.401Z,2.27
2018-12-07T18:50:00.402Z,2.47
2018-12-07T18:52:28.419Z,2.30
2018-12-07T18:54:57.525Z,1.73
2018-12-07T18:57:25.665Z,1.93
2018-12-07T18:59:53.697Z,1.70
2018-12-07T19:02:21.801Z,1.20
2018-12-07T19:04:50.637Z,1.03
2018-12-07T19:07:18.684Z,1.27
2018-12-07T19:09:46.970Z,1.30
2018-12-07T19:12:15.435Z,4.07
2018-12-07T19:14:43.673Z,1.73
2018-12-07T19:17:11.994Z,1.27
2018-12-07T19:19:40.458Z,1.00
2018-12-07T19:22:08.631Z,1.60
2018-12-07T19:24:36.633Z,1.37
2018-12-07T19:27:06.609Z,0.70
2018-12-07T19:29:34.747Z,0.80
2018-12-07T19:32:02.788Z,1.50
2018-12-07T19:37:30.113Z,1.73
2018-12-07T19:39:58.338Z,1.77
2018-12-07T19:42:28.400Z,1.70
2018-12-07T19:44:56.543Z,1.33
2018-12-07T19:47:26.829Z,2.10
2018-12-07T19:49:55.345Z,2.90
2018-12-07T19:52:24.864Z,2.43
2018-12-07T19:54:52.878Z,1.60
2018-12-07T20:03:08.724Z,1.53
2018-12-07T20:05:36.776Z,2.50
2018-12-07T20:08:22.943Z,1.83
2018-12-07T20:10:50.904Z,2.37
2018-12-07T20:13:24.762Z,3.10
2018-12-07T20:15:52.768Z,3.63
2018-12-07T20:18:36.787Z,2.37
2018-12-07T20:21:05.955Z,2.13
2018-12-07T20:23:34.129Z,1.67
2018-12-07T20:28:51.428Z,2.70
2018-12-07T20:31:34.046Z,1.70
2018-12-07T20:34:01.950Z,2.40
2018-12-07T20:36:37.761Z,2.20
2018-12-07T20:39:06.639Z,2.23
2018-12-07T20:41:39.662Z,2.83
2018-12-07T20:44:08.659Z,2.93
2018-12-07T20:46:42.849Z,2.73
2018-12-07T20:49:11.146Z,3.77
2018-12-07T20:51:39.153Z,2.53
2018-12-07T20:54:07.456Z,2.40
2018-12-07T20:56:35.562Z,1.87
2018-12-07T20:59:03.775Z,1.97
2018-12-07T21:01:32.143Z,1.70
2018-12-07T21:04:35.577Z,1.77
2018-12-07T21:08:11.702Z,2.23
2018-12-07T21:10:58.481Z,2.73
2018-12-07T21:14:32.183Z,2.03
2018-12-07T21:17:07.615Z,1.70
2018-12-07T21:19:36.623Z,1.90
2018-12-07T21:22:06.187Z,2.10
2018-12-07T21:24:34.302Z,1.40
2018-12-07T21:27:03.489Z,1.80
2018-12-07T21:29:31.672Z,2.07
2018-12-07T21:32:00.469Z,3.30
2018-12-07T21:34:34.108Z,1.70
2018-12-07T21:37:02.634Z,1.63
2018-12-07T21:39:33.733Z,1.20
2018-12-07T21:42:02.026Z,1.23
2018-12-07T21:44:30.123Z,1.30
2018-12-07T21:46:58.068Z,1.63
2018-12-07T21:49:27.372Z,1.30
2018-12-07T21:52:00.595Z,2.73
2018-12-07T21:54:28.668Z,1.60
2018-12-07T21:56:56.940Z,1.40
2018-12-07T21:59:25.297Z,1.57
2018-12-07T22:01:53.425Z,2.00
2018-12-07T22:04:21.411Z,1.40
2018-12-07T22:06:49.758Z,1.90
2018-12-07T22:09:17.841Z,1.80
2018-12-07T22:11:47.023Z,1.30
2018-12-07T22:14:15.210Z,1.33
2018-12-07T22:16:43.150Z,1.47
2018-12-07T22:19:11.016Z,1.60
2018-12-07T22:21:39.246Z,1.10
2018-12-07T22:24:07.821Z,1.20
2018-12-07T22:26:36.066Z,1.10
2018-12-07T22:29:04.553Z,0.90
2018-12-07T22:31:32.943Z,1.63
2018-12-07T22:34:01.315Z,1.40
2018-12-07T22:36:29.793Z,0.90
2018-12-07T22:38:58.134Z,1.20
2018-12-07T22:41:26.442Z,1.00
2018-12-07T22:43:54.954Z,1.63
2018-12-07T22:46:22.916Z,0.90
2018-12-07T22:48:51.247Z,0.90
2018-12-07T22:51:23.768Z,1.03
2018-12-07T22:53:52.375Z,0.60
2018-12-07T22:56:20.297Z,1.33
2018-12-07T22:58:48.365Z,1.50
2018-12-07T23:01:16.451Z,1.00
2018-12-07T23:03:44.514Z,1.00
2018-12-07T23:06:12.416Z,1.00
2018-12-07T23:08:40.272Z,1.33
2018-12-07T23:11:08.143Z,0.70
2018-12-07T23:13:36.403Z,1.00
2018-12-07T23:16:04.459Z,1.07
2018-12-07T23:18:32.343Z,1.47
2018-12-07T23:21:00.415Z,1.63
2018-12-07T23:23:28.473Z,0.80
2018-12-07T23:25:56.366Z,0.90
2018-12-07T23:28:24.643Z,1.20
2018-12-07T23:30:52.681Z,1.10
2018-12-07T23:33:20.498Z,1.00
2018-12-07T23:35:48.618Z,1.30
2018-12-07T23:38:16.669Z,1.17
2018-12-07T23:40:44.754Z,1.43
2018-12-07T23:43:12.598Z,1.50
2018-12-07T23:45:40.526Z,1.20
2018-12-07T23:48:08.593Z,1.17
2018-12-07T23:50:36.462Z,1.00
2018-12-07T23:53:04.733Z,1.00
2018-12-07T23:55:32.551Z,1.40
2018-12-07T23:58:00.437Z,0.97
